Ostrava, Czech Republic

5:51 AM CEST on June 02, 2015 (GMT +0200)
Lubina | | Change Station
CLOSE
Current Station
Personal Weather Station
Location: Lubina, NOVY JICIN
Elevation: 1010 ft
Nearby Weather Stations

Elev 1010 ft 49.61 °N, 18.17 °E | Updated 8 seconds ago

Clear
Clear
60.4 °F
Feels Like 60.4 °F
N
0.4
Wind Variable Wind from ESE
Gusts 4.5 mph

Today
High -- | Low -- °F
--% Chance of Precip.
Yesterday
High -- | Low -- °F
Precip. -- in
4:44 AM 8:46 PM
Full, 100% visible
Pressure 30.04 in
Visibility -9999.0 miles
Clouds
Dew Point 59 °F
Humidity 96%
Rainfall 0.00 in
Snow Depth Not available.
UV Not available.
Pollen Not available.
Air Quality Not available.
Flu Activity Not available.
METAR LKMT 020330Z VRB01KT CAVOK 14/13 Q1017 NOSIG

More Conditions Fewer Conditions

Pressure 30.04 in
Visibility -9999.0 miles
Clouds
Dew Point 59 °F
Humidity 96%
Rainfall 0.00 in
Snow Depth Not available.
UV Not available.
Pollen Not available.
Air Quality Not available.
Flu Activity Not available.
METAR LKMT 020330Z VRB01KT CAVOK 14/13 Q1017 NOSIG

More Conditions Fewer Conditions

10-Day Weather Forecast

Almanac

Astronomy

Jun. 02, 2015 Rise Set
Actual Time
Civil Twilight
Nautical Twilight
Astronomical Twilight
Moon
Length of Visible Light
Length of Day
Tomorrow will be .
, % of the Moon is Illuminated

Today's Extremes

Country Highs Country Lows

Community

WunderPhotos

Upload Photos

1,825,883 photos uploaded!

WunderBlogs® & News

Nearby

Air Quality

  Air Quality AQ Index Pollutant
Not available.

Snow Depth

Station Depth Elevation

Earthquake Activity

City Distance Mag. Time & Date
Minimum magnitude displayed is 2.5.

Coastal Water Temperatures

Place Temperature

Stations

Nearby Weather Stations

Station Location Temp. Windchill Dew Point Humidity Wind Precip. Elev Updated Type